createdAt,value
2018-07-15T00:01:27.551Z,6.60
2018-07-15T00:04:03.241Z,5.53
2018-07-15T00:06:39.181Z,5.67
2018-07-15T00:09:14.720Z,6.60
2018-07-15T00:11:51.965Z,4.13
2018-07-15T00:14:28.520Z,4.00
2018-07-15T00:17:02.023Z,4.47
2018-07-15T00:19:38.328Z,4.93
2018-07-15T00:22:14.574Z,6.00
2018-07-15T00:24:50.506Z,4.40
2018-07-15T00:27:24.776Z,7.77
2018-07-15T00:30:00.908Z,7.83
2018-07-15T00:32:36.526Z,4.97
2018-07-15T00:35:11.916Z,7.63
2018-07-15T00:37:47.246Z,7.50
2018-07-15T00:40:24.190Z,6.17
2018-07-15T00:42:59.988Z,8.30
2018-07-15T00:45:35.526Z,9.60
2018-07-15T00:48:10.997Z,7.87
2018-07-15T00:50:44.870Z,7.90
2018-07-15T00:53:19.493Z,7.27
2018-07-15T00:55:55.187Z,6.50
2018-07-15T00:58:32.820Z,8.57
2018-07-15T01:01:08.920Z,9.97
2018-07-15T01:03:43.984Z,8.30
2018-07-15T01:06:19.329Z,7.80
2018-07-15T01:08:52.757Z,11.93
2018-07-15T01:11:28.334Z,8.40
2018-07-15T01:14:04.255Z,10.47
2018-07-15T01:16:40.867Z,9.63
2018-07-15T01:19:16.565Z,9.67
2018-07-15T01:21:51.527Z,11.00
2018-07-15T01:24:26.935Z,10.37
2018-07-15T01:27:01.875Z,9.00
2018-07-15T01:29:37.492Z,10.90
2018-07-15T01:32:13.049Z,9.73
2018-07-15T01:34:48.396Z,8.77
2018-07-15T01:37:23.497Z,9.93
2018-07-15T01:39:58.579Z,9.43
2018-07-15T01:42:35.056Z,11.73
2018-07-15T01:45:11.006Z,12.10
2018-07-15T01:47:46.038Z,10.33
2018-07-15T01:50:21.112Z,14.00
2018-07-15T01:52:56.556Z,15.10
2018-07-15T01:55:31.215Z,13.33
2018-07-15T01:58:06.266Z,15.33
2018-07-15T02:00:41.432Z,16.97
2018-07-15T02:03:17.026Z,15.93
2018-07-15T02:05:52.961Z,14.50
2018-07-15T02:08:28.354Z,14.20
2018-07-15T02:11:03.682Z,18.50
2018-07-15T02:13:39.188Z,13.87
2018-07-15T02:16:13.179Z,16.40
2018-07-15T02:18:47.802Z,14.40
2018-07-15T02:21:23.599Z,16.10
2018-07-15T02:23:57.371Z,16.40
2018-07-15T02:26:32.436Z,14.33
2018-07-15T02:29:07.655Z,17.43
2018-07-15T02:31:44.210Z,13.47
2018-07-15T02:34:20.035Z,17.20
2018-07-15T02:36:55.216Z,19.43
2018-07-15T02:39:30.635Z,15.03
2018-07-15T02:42:06.012Z,19.30
2018-07-15T02:44:39.361Z,13.80
2018-07-15T02:47:15.538Z,17.13
2018-07-15T02:49:50.637Z,17.67
2018-07-15T02:52:26.182Z,14.30
2018-07-15T02:55:02.172Z,16.10
2018-07-15T02:57:37.984Z,14.97
2018-07-15T03:00:13.366Z,20.10
2018-07-15T03:02:50.029Z,17.60
2018-07-15T03:05:26.030Z,16.73
2018-07-15T03:08:01.344Z,16.00
2018-07-15T03:10:36.382Z,16.90
2018-07-15T03:13:10.901Z,20.00
2018-07-15T03:15:46.299Z,17.03
2018-07-15T03:18:21.543Z,15.97
2018-07-15T03:20:58.999Z,20.00
2018-07-15T03:23:32.251Z,16.27
2018-07-15T03:26:07.519Z,17.30
2018-07-15T03:28:42.884Z,14.93
2018-07-15T03:31:17.419Z,20.93
2018-07-15T03:33:51.411Z,16.93
2018-07-15T03:36:26.089Z,17.90
2018-07-15T03:39:00.770Z,20.93
2018-07-15T03:41:36.071Z,19.40
2018-07-15T03:44:11.280Z,16.60
2018-07-15T03:46:46.579Z,16.03
2018-07-15T03:49:22.313Z,17.13
2018-07-15T03:52:04.664Z,19.87
2018-07-15T03:54:40.266Z,15.10
2018-07-15T03:57:16.110Z,18.03
2018-07-15T03:59:51.710Z,18.00
2018-07-15T04:02:27.076Z,19.20
2018-07-15T04:05:01.683Z,18.77
2018-07-15T04:07:36.747Z,21.20
2018-07-15T04:10:12.723Z,15.57
2018-07-15T04:12:48.444Z,20.43
2018-07-15T04:15:23.760Z,15.63
2018-07-15T04:18:03.816Z,18.57
2018-07-15T04:20:40.076Z,22.27
2018-07-15T04:23:15.301Z,17.43
2018-07-15T04:25:52.688Z,14.40
2018-07-15T04:28:27.842Z,14.07
2018-07-15T04:31:02.642Z,14.30
2018-07-15T04:33:36.055Z,19.03
2018-07-15T04:36:10.491Z,13.70
2018-07-15T04:38:47.821Z,16.57
2018-07-15T04:41:23.288Z,20.53
2018-07-15T04:43:58.857Z,14.57
2018-07-15T04:46:34.469Z,14.60
2018-07-15T04:49:10.710Z,15.07
2018-07-15T04:51:44.004Z,14.50
2018-07-15T04:54:17.534Z,15.80
2018-07-15T04:57:34.875Z,15.53
2018-07-15T15:48:22.080Z,12.13
2018-07-15T15:50:55.537Z,4.90
2018-07-15T15:53:29.362Z,6.50
2018-07-15T15:56:03.449Z,14.80
2018-07-15T15:58:37.368Z,11.80
2018-07-15T16:01:09.124Z,4.57
2018-07-15T16:03:44.527Z,7.13
2018-07-15T16:08:09.990Z,5.10
2018-07-15T16:10:43.434Z,7.20
2018-07-15T16:13:16.986Z,5.03
2018-07-15T16:15:50.089Z,6.53
2018-07-15T16:18:23.665Z,4.20
2018-07-15T16:20:56.829Z,6.53
2018-07-15T16:23:30.623Z,4.90
2018-07-15T16:26:03.853Z,5.60
2018-07-15T16:28:37.009Z,5.70
2018-07-15T16:31:10.305Z,11.90
2018-07-15T16:33:43.375Z,3.97
2018-07-15T16:36:16.725Z,3.40
2018-07-15T16:38:49.814Z,6.13
2018-07-15T16:41:23.480Z,4.70
2018-07-15T16:43:56.758Z,6.40
2018-07-15T16:46:30.164Z,6.43
2018-07-15T16:49:03.829Z,4.90
2018-07-15T16:51:37.849Z,4.30
2018-07-15T16:54:14.965Z,4.00
2018-07-15T16:56:48.155Z,3.30
2018-07-15T16:59:21.193Z,3.10
2018-07-15T17:01:54.236Z,5.10
2018-07-15T17:04:27.245Z,5.50
2018-07-15T17:06:59.447Z,3.80
2018-07-15T17:09:32.524Z,3.70
2018-07-15T17:12:05.564Z,3.33
2018-07-15T17:14:38.569Z,5.03
2018-07-15T17:17:11.617Z,8.50
2018-07-15T17:19:44.842Z,3.53
2018-07-15T17:22:17.798Z,4.10
2018-07-15T17:24:50.863Z,4.50
2018-07-15T17:27:24.027Z,5.27
2018-07-15T17:29:57.198Z,5.70
2018-07-15T17:32:31.594Z,4.20
2018-07-15T17:35:04.643Z,4.70
2018-07-15T17:37:38.111Z,4.10
2018-07-15T17:40:11.196Z,4.73
2018-07-15T17:42:44.286Z,4.40
2018-07-15T17:45:19.500Z,9.27
2018-07-15T17:47:52.538Z,4.00
2018-07-15T17:50:25.790Z,4.07
2018-07-15T17:52:58.909Z,4.20
2018-07-15T17:55:31.975Z,4.80
2018-07-15T17:58:04.885Z,3.33
2018-07-15T18:00:37.922Z,4.57
2018-07-15T18:03:12.346Z,6.07
2018-07-15T18:05:45.288Z,6.00
2018-07-15T18:08:19.009Z,4.33
2018-07-15T18:10:52.117Z,3.33
2018-07-15T18:13:25.131Z,7.00
2018-07-15T18:15:58.583Z,4.13
2018-07-15T18:18:31.655Z,9.53
2018-07-15T18:21:04.816Z,4.90
2018-07-15T18:23:37.786Z,5.10
2018-07-15T18:26:10.774Z,3.00
2018-07-15T18:28:44.592Z,4.60
2018-07-15T18:31:17.993Z,5.40
2018-07-15T18:33:49.885Z,3.27
2018-07-15T18:36:22.937Z,4.40
2018-07-15T18:39:01.963Z,3.37
2018-07-15T18:41:35.002Z,5.50
2018-07-15T18:44:08.123Z,5.73
2018-07-15T18:46:42.192Z,5.10
2018-07-15T18:49:15.212Z,3.83
2018-07-15T18:51:48.211Z,4.20
2018-07-15T18:54:21.236Z,4.73
2018-07-15T18:56:54.219Z,4.17
2018-07-15T18:59:27.020Z,3.60
2018-07-15T19:01:58.529Z,3.00
2018-07-15T19:04:32.300Z,3.03
2018-07-15T19:07:05.399Z,3.33
2018-07-15T19:09:38.496Z,4.13
2018-07-15T19:12:11.931Z,5.97
2018-07-15T19:14:44.986Z,3.20
2018-07-15T19:17:17.990Z,9.57
2018-07-15T19:19:51.105Z,3.90
2018-07-15T19:22:24.084Z,5.63
2018-07-15T19:24:55.687Z,3.43
2018-07-15T19:27:28.702Z,5.20
2018-07-15T19:30:02.179Z,3.07
2018-07-15T19:32:35.287Z,4.50
2018-07-15T19:35:08.732Z,3.47
2018-07-15T19:37:42.396Z,3.47
2018-07-15T19:40:15.403Z,2.77
2018-07-15T19:42:47.303Z,5.17
2018-07-15T19:45:21.331Z,3.53
2018-07-15T19:47:54.414Z,5.43
2018-07-15T19:50:27.571Z,3.23
2018-07-15T19:53:00.531Z,4.40
2018-07-15T19:55:33.762Z,4.20
2018-07-15T19:58:07.031Z,3.20
2018-07-15T20:00:40.056Z,4.73
2018-07-15T20:03:13.051Z,5.00
2018-07-15T20:05:46.161Z,4.07
2018-07-15T20:08:19.324Z,6.10
2018-07-15T20:10:52.628Z,2.80
2018-07-15T20:13:26.106Z,4.30
2018-07-15T20:16:00.468Z,3.40
2018-07-15T20:18:33.491Z,6.23
2018-07-15T20:21:13.831Z,6.40
2018-07-15T20:23:46.928Z,4.53
2018-07-15T20:26:20.082Z,3.13
2018-07-15T20:28:53.144Z,4.70
2018-07-15T20:31:26.842Z,3.07
2018-07-15T20:34:00.970Z,3.50
2018-07-15T20:36:34.132Z,3.20
2018-07-15T20:39:07.755Z,3.80
2018-07-15T20:41:40.837Z,4.97
2018-07-15T20:44:13.973Z,4.83
2018-07-15T20:46:47.170Z,5.63
2018-07-15T20:49:21.350Z,7.37
2018-07-15T20:51:54.256Z,3.60
2018-07-15T20:54:27.355Z,5.67
2018-07-15T20:57:00.378Z,4.37
2018-07-15T20:59:33.359Z,4.90
2018-07-15T21:02:06.413Z,5.17
2018-07-15T21:04:39.457Z,4.53
2018-07-15T21:07:12.499Z,4.13
2018-07-15T21:09:45.531Z,5.00
2018-07-15T21:12:18.682Z,3.70
2018-07-15T21:14:51.641Z,4.47
2018-07-15T21:17:25.055Z,5.53
2018-07-15T21:19:58.192Z,4.57
2018-07-15T21:22:31.956Z,3.30
2018-07-15T21:25:04.986Z,7.50
2018-07-15T21:27:37.977Z,6.73
2018-07-15T21:30:11.184Z,4.90
2018-07-15T21:32:44.236Z,5.10
2018-07-15T21:35:20.123Z,4.37
2018-07-15T21:37:53.170Z,4.23
2018-07-15T21:40:26.320Z,5.50
2018-07-15T21:42:59.285Z,3.40
2018-07-15T21:45:32.447Z,6.17
2018-07-15T21:48:05.790Z,4.60
2018-07-15T21:50:40.327Z,4.60
2018-07-15T21:53:13.345Z,5.97
2018-07-15T21:55:46.275Z,4.13
2018-07-15T21:58:19.357Z,4.17
2018-07-15T22:00:52.753Z,3.53
2018-07-15T22:03:26.382Z,3.63
2018-07-15T22:05:59.508Z,6.40
2018-07-15T22:08:41.384Z,3.47
2018-07-15T22:11:14.544Z,5.17
2018-07-15T22:13:47.888Z,4.30
2018-07-15T22:16:21.095Z,5.20
2018-07-15T22:18:54.915Z,4.30
2018-07-15T22:21:27.848Z,5.30
2018-07-15T22:24:00.890Z,4.00
2018-07-15T22:26:34.191Z,3.90
2018-07-15T22:29:07.112Z,4.63
2018-07-15T22:31:39.030Z,7.53
2018-07-15T22:34:12.059Z,6.60
2018-07-15T22:36:45.171Z,6.40
2018-07-15T22:39:18.957Z,4.97
2018-07-15T22:41:52.034Z,4.80
2018-07-15T22:44:25.805Z,4.20
2018-07-15T22:46:58.750Z,6.10
2018-07-15T22:49:32.362Z,7.33
2018-07-15T22:52:05.430Z,5.13
2018-07-15T22:54:38.354Z,5.83
2018-07-15T22:57:11.975Z,6.80
2018-07-15T22:59:45.090Z,9.10
2018-07-15T23:02:18.134Z,5.67
2018-07-15T23:05:58.740Z,10.53
2018-07-15T23:08:34.027Z,6.67
2018-07-15T23:11:06.975Z,7.50
2018-07-15T23:13:39.972Z,6.80
2018-07-15T23:16:13.177Z,4.20
2018-07-15T23:18:45.206Z,7.97
2018-07-15T23:21:20.006Z,7.20
2018-07-15T23:23:52.936Z,6.10
2018-07-15T23:26:24.514Z,8.63
2018-07-15T23:28:57.523Z,7.90
2018-07-15T23:31:30.936Z,7.50
2018-07-15T23:34:03.966Z,8.27
2018-07-15T23:36:37.364Z,5.57
2018-07-15T23:39:10.385Z,8.10
2018-07-15T23:41:43.464Z,10.63
2018-07-15T23:44:16.607Z,8.90
2018-07-15T23:46:49.903Z,6.80
2018-07-15T23:49:23.703Z,8.10
2018-07-15T23:51:56.981Z,8.30
2018-07-15T23:54:30.410Z,7.90
2018-07-15T23:57:03.836Z,7.43
2018-07-15T23:59:38.626Z,8.80
